createdAt,value
2023-02-06T00:01:19.018Z,8.54
2023-02-06T00:03:46.403Z,8.58
2023-02-06T00:06:14.016Z,8.65
2023-02-06T00:08:41.711Z,8.76
2023-02-06T00:11:12.003Z,8.71
2023-02-06T00:13:41.143Z,8.71
2023-02-06T00:16:16.917Z,8.72
2023-02-06T00:18:45.074Z,8.71
2023-02-06T00:21:13.476Z,8.76
2023-02-06T00:23:40.820Z,8.84
2023-02-06T00:26:08.930Z,8.92
2023-02-06T00:28:36.325Z,8.92
2023-02-06T00:31:07.335Z,8.96
2023-02-06T00:33:35.766Z,8.87
2023-02-06T00:36:03.901Z,8.84
2023-02-06T00:38:31.659Z,8.88
2023-02-06T00:40:59.466Z,8.90
2023-02-06T00:43:26.633Z,9.00
2023-02-06T00:45:55.345Z,9.00
2023-02-06T00:48:25.066Z,9.06
2023-02-06T00:50:53.687Z,9.09
2023-02-06T00:53:21.613Z,8.97
2023-02-06T00:55:49.594Z,8.91
2023-02-06T00:58:16.786Z,8.91
2023-02-06T01:00:43.999Z,8.89
2023-02-06T01:03:11.486Z,8.88
2023-02-06T01:05:40.407Z,8.85
2023-02-06T01:08:07.623Z,8.85
2023-02-06T01:10:35.417Z,8.80
2023-02-06T01:13:02.649Z,8.66
2023-02-06T01:15:29.875Z,8.76
2023-02-06T01:17:57.180Z,8.66
2023-02-06T01:20:24.586Z,8.66
2023-02-06T01:22:53.845Z,8.57
2023-02-06T01:25:21.213Z,8.52
2023-02-06T01:27:48.608Z,8.48
2023-02-06T01:30:15.582Z,8.40
2023-02-06T01:32:43.336Z,8.21
2023-02-06T01:35:11.747Z,8.20
2023-02-06T01:37:40.206Z,8.25
2023-02-06T01:40:14.731Z,8.33
2023-02-06T01:42:42.309Z,8.40
2023-02-06T01:45:35.513Z,8.42
2023-02-06T01:48:07.763Z,8.31
2023-02-06T01:50:37.541Z,8.38
2023-02-06T01:53:07.317Z,8.28
2023-02-06T01:55:43.769Z,8.20
2023-02-06T01:58:14.816Z,8.23
2023-02-06T02:00:42.603Z,8.26
2023-02-06T02:03:10.076Z,8.30
2023-02-06T02:05:40.390Z,8.32
2023-02-06T02:08:15.486Z,8.41
2023-02-06T02:10:44.871Z,8.40
2023-02-06T02:13:12.062Z,8.48
2023-02-06T02:15:46.816Z,8.49
2023-02-06T02:18:31.635Z,8.40
2023-02-06T02:21:37.481Z,8.37
2023-02-06T02:24:12.895Z,8.39
2023-02-06T02:27:03.741Z,8.46
2023-02-06T02:30:14.838Z,8.53
2023-02-06T02:33:20.529Z,8.70
2023-02-06T02:35:56.986Z,8.67
2023-02-06T02:38:39.069Z,8.71
2023-02-06T02:41:16.541Z,8.67
2023-02-06T02:43:45.484Z,8.64
2023-02-06T02:46:23.487Z,8.59
2023-02-06T02:48:54.514Z,8.47
2023-02-06T02:51:24.958Z,8.48
2023-02-06T02:53:52.352Z,8.60
2023-02-06T02:56:23.258Z,8.54
2023-02-06T02:58:55.755Z,8.64
2023-02-06T03:01:28.895Z,8.68
2023-02-06T03:03:59.541Z,8.73
2023-02-06T03:07:00.998Z,8.74
2023-02-06T03:09:45.892Z,8.80
2023-02-06T03:12:19.877Z,8.92
2023-02-06T03:14:54.184Z,8.81
2023-02-06T03:17:33.061Z,8.85
2023-02-06T03:20:02.929Z,8.92
2023-02-06T03:22:35.219Z,8.79
2023-02-06T03:25:05.579Z,8.76
2023-02-06T03:27:34.468Z,8.81
2023-02-06T03:30:06.519Z,8.94
2023-02-06T03:32:38.285Z,8.93
2023-02-06T03:35:11.019Z,8.90
2023-02-06T03:37:40.356Z,8.81
2023-02-06T03:40:09.225Z,8.87
2023-02-06T03:42:41.944Z,8.93
2023-02-06T03:45:15.639Z,9.06
2023-02-06T03:47:46.944Z,9.09
2023-02-06T03:50:15.400Z,9.10
2023-02-06T03:52:48.900Z,9.09
2023-02-06T03:55:20.999Z,9.09
2023-02-06T03:57:52.172Z,9.13
2023-02-06T04:00:20.644Z,9.12
2023-02-06T04:02:48.936Z,9.15
2023-02-06T04:05:18.001Z,9.17
2023-02-06T04:07:47.267Z,9.22
2023-02-06T04:10:14.237Z,9.26
2023-02-06T04:12:41.708Z,9.21
2023-02-06T04:15:09.642Z,9.27
2023-02-06T04:17:53.613Z,9.34
2023-02-06T04:20:23.737Z,9.34
2023-02-06T04:22:52.800Z,9.22
2023-02-06T04:25:20.100Z,9.04
2023-02-06T04:27:47.749Z,9.01
2023-02-06T04:30:14.711Z,9.06
2023-02-06T04:32:43.293Z,9.11
2023-02-06T04:35:12.564Z,9.15
2023-02-06T04:37:39.922Z,9.22
2023-02-06T04:40:10.062Z,9.15
2023-02-06T04:42:37.472Z,9.14
2023-02-06T04:45:05.601Z,9.15
2023-02-06T04:47:32.810Z,9.10
2023-02-06T04:50:00.243Z,9.10
2023-02-06T04:52:27.662Z,9.10
2023-02-06T04:54:55.244Z,9.04
2023-02-06T04:57:24.488Z,9.07
2023-02-06T04:59:51.939Z,9.08
2023-02-06T05:02:19.246Z,9.05
2023-02-06T05:04:46.877Z,9.09
2023-02-06T05:07:14.224Z,9.09
2023-02-06T05:09:41.517Z,9.13
2023-02-06T05:12:08.972Z,9.20
2023-02-06T05:14:38.252Z,8.96
2023-02-06T05:17:05.633Z,8.77
2023-02-06T05:19:33.755Z,8.72
2023-02-06T05:22:00.970Z,8.68
2023-02-06T05:24:28.463Z,8.61
2023-02-06T05:26:55.884Z,8.61
2023-02-06T05:29:23.182Z,8.55
2023-02-06T05:31:52.225Z,8.45
2023-02-06T05:34:19.747Z,8.31
2023-02-06T05:36:46.879Z,8.19
2023-02-06T05:39:14.505Z,8.06
2023-02-06T05:41:42.058Z,7.93
2023-02-06T05:44:09.360Z,7.96
2023-02-06T05:46:36.897Z,7.85
2023-02-06T05:49:06.127Z,7.74
2023-02-06T05:51:33.304Z,7.74
2023-02-06T05:54:00.429Z,7.65
2023-02-06T05:56:28.061Z,7.56
2023-02-06T05:58:55.217Z,7.60
2023-02-06T06:01:22.693Z,7.64
2023-02-06T06:03:50.082Z,7.80
2023-02-06T06:06:18.745Z,8.00
2023-02-06T06:08:45.854Z,7.97
2023-02-06T06:11:13.226Z,8.11
2023-02-06T06:13:40.534Z,8.08
2023-02-06T06:16:08.544Z,8.01
2023-02-06T06:18:36.206Z,7.96
2023-02-06T06:21:03.546Z,7.89
2023-02-06T06:23:32.243Z,7.73
2023-02-06T06:25:59.989Z,7.66
2023-02-06T06:28:26.813Z,7.67
2023-02-06T06:31:01.565Z,7.74
2023-02-06T06:33:28.914Z,7.81
2023-02-06T06:35:56.160Z,7.82
2023-02-06T06:38:23.815Z,7.88
2023-02-06T06:40:53.038Z,7.81
2023-02-06T06:43:20.296Z,7.75
2023-02-06T06:45:48.313Z,7.79
2023-02-06T06:48:15.729Z,7.87
2023-02-06T06:50:42.989Z,7.91
2023-02-06T06:53:10.691Z,7.98
2023-02-06T06:55:38.330Z,7.84
2023-02-06T06:58:07.808Z,7.75
2023-02-06T07:00:35.279Z,7.61
2023-02-06T07:03:02.564Z,7.43
2023-02-06T07:05:30.562Z,7.32
2023-02-06T07:07:57.855Z,7.39
2023-02-06T07:10:26.250Z,7.38
2023-02-06T07:12:53.830Z,7.46
2023-02-06T07:15:23.789Z,7.46
2023-02-06T07:17:51.180Z,7.39
2023-02-06T07:20:18.849Z,7.37
2023-02-06T07:22:47.174Z,7.26
2023-02-06T07:25:14.540Z,7.21
2023-02-06T07:27:41.931Z,7.10
2023-02-06T07:30:10.790Z,7.16
2023-02-06T07:32:39.763Z,7.22
2023-02-06T07:35:07.627Z,7.13
2023-02-06T07:37:35.099Z,7.22
2023-02-06T07:40:02.841Z,7.21
2023-02-06T07:42:29.984Z,7.25
2023-02-06T07:44:57.194Z,7.31
2023-02-06T07:47:24.481Z,7.31
2023-02-06T07:49:53.304Z,7.38
2023-02-06T07:52:22.392Z,7.51
2023-02-06T07:54:49.535Z,7.54
2023-02-06T07:57:17.606Z,7.67
2023-02-06T07:59:45.001Z,7.79
2023-02-06T08:02:13.410Z,7.87
2023-02-06T08:04:40.839Z,8.02
2023-02-06T08:07:09.948Z,8.38
2023-02-06T08:09:37.244Z,8.50
2023-02-06T08:12:04.908Z,8.54
2023-02-06T08:14:32.564Z,8.50
2023-02-06T08:17:01.017Z,8.43
2023-02-06T08:19:28.502Z,8.43
2023-02-06T08:21:56.162Z,8.46
2023-02-06T08:24:25.734Z,8.72
2023-02-06T08:26:53.399Z,9.21
2023-02-06T08:29:21.100Z,9.61
2023-02-06T08:31:48.701Z,10.05
2023-02-06T08:34:16.341Z,10.31
2023-02-06T08:36:43.987Z,10.27
2023-02-06T08:39:13.186Z,10.45
2023-02-06T08:41:43.654Z,10.51
2023-02-06T08:44:15.231Z,10.49
2023-02-06T08:46:43.995Z,10.38
2023-02-06T08:49:13.782Z,10.14
2023-02-06T08:51:41.715Z,10.12
2023-02-06T08:54:12.321Z,10.22
2023-02-06T08:56:42.153Z,10.32
2023-02-06T08:59:09.550Z,10.30
2023-02-06T09:01:38.105Z,10.29
2023-02-06T09:04:07.086Z,10.40
2023-02-06T09:06:36.283Z,10.48
2023-02-06T09:09:04.094Z,10.52
2023-02-06T09:11:31.593Z,10.58
2023-02-06T09:14:01.622Z,10.70
2023-02-06T09:16:29.872Z,10.70
2023-02-06T09:18:57.454Z,11.04
2023-02-06T09:21:26.095Z,11.47
2023-02-06T09:23:56.706Z,11.81
2023-02-06T09:26:25.846Z,12.22
2023-02-06T09:28:53.473Z,12.53
2023-02-06T09:31:22.738Z,12.70
2023-02-06T09:33:50.742Z,12.66
2023-02-06T09:36:20.158Z,12.85
2023-02-06T09:38:50.869Z,13.24
2023-02-06T09:41:29.421Z,13.56
2023-02-06T09:44:01.799Z,13.72
2023-02-06T09:46:33.649Z,13.81
2023-02-06T09:49:07.927Z,14.05
2023-02-06T09:51:51.076Z,14.31
2023-02-06T09:54:28.648Z,14.69
2023-02-06T09:57:00.861Z,14.88
2023-02-06T09:59:32.617Z,14.83
2023-02-06T10:02:21.007Z,14.99
2023-02-06T10:04:56.711Z,15.24
2023-02-06T10:07:41.283Z,15.06
2023-02-06T10:10:15.794Z,15.36
2023-02-06T10:12:47.621Z,15.56
2023-02-06T10:15:23.151Z,15.91
2023-02-06T10:17:56.952Z,15.98
2023-02-06T10:20:33.521Z,15.90
2023-02-06T10:23:12.289Z,15.55
2023-02-06T10:25:45.679Z,15.55
2023-02-06T10:28:23.225Z,15.76
2023-02-06T10:31:14.461Z,15.76
2023-02-06T10:33:50.619Z,16.10
2023-02-06T10:36:35.025Z,15.97
2023-02-06T10:39:45.155Z,15.81
2023-02-06T10:42:21.711Z,15.69
2023-02-06T10:45:09.561Z,15.86
2023-02-06T10:47:51.255Z,15.93
2023-02-06T10:50:26.213Z,15.84
2023-02-06T10:52:56.521Z,15.93
2023-02-06T10:55:27.078Z,15.85
2023-02-06T10:58:06.023Z,15.77
2023-02-06T11:00:34.001Z,15.57
2023-02-06T11:03:07.856Z,15.64
2023-02-06T11:05:37.293Z,15.64
2023-02-06T11:08:14.261Z,15.76
2023-02-06T11:10:41.457Z,16.02
2023-02-06T11:13:14.812Z,16.35
2023-02-06T11:15:50.382Z,16.44
2023-02-06T11:18:21.004Z,16.18
2023-02-06T11:20:54.836Z,16.42
2023-02-06T11:23:25.399Z,16.60
2023-02-06T11:26:04.148Z,16.44
2023-02-06T11:28:32.576Z,16.58
2023-02-06T11:31:03.319Z,16.41
2023-02-06T11:33:39.108Z,16.45
2023-02-06T11:36:23.274Z,16.20
2023-02-06T11:38:59.314Z,16.07
2023-02-06T11:41:27.636Z,16.21
2023-02-06T11:43:57.872Z,16.05
2023-02-06T11:46:27.571Z,16.28
2023-02-06T11:49:07.569Z,16.45
2023-02-06T11:51:54.711Z,16.70
2023-02-06T11:54:24.977Z,16.89
2023-02-06T11:57:04.763Z,16.96
2023-02-06T11:59:33.564Z,17.02
2023-02-06T12:02:01.759Z,16.89
2023-02-06T12:04:35.376Z,16.87
2023-02-06T12:07:14.003Z,17.25
2023-02-06T12:09:41.436Z,17.47
2023-02-06T12:12:19.926Z,17.62
2023-02-06T12:14:53.978Z,17.95
2023-02-06T12:17:28.104Z,18.49
2023-02-06T12:20:04.754Z,18.89
2023-02-06T12:22:40.755Z,19.32
2023-02-06T12:25:24.790Z,18.83
2023-02-06T12:27:58.278Z,18.70
2023-02-06T12:30:39.578Z,19.51
2023-02-06T12:33:15.937Z,20.22
2023-02-06T12:35:46.782Z,20.56
2023-02-06T12:38:23.314Z,20.53
2023-02-06T12:41:14.528Z,20.59
2023-02-06T12:43:44.575Z,20.46
2023-02-06T12:46:16.548Z,20.80
2023-02-06T12:48:49.677Z,20.79
2023-02-06T12:51:22.369Z,20.68
2023-02-06T12:53:55.393Z,20.03
2023-02-06T12:56:28.858Z,20.50
2023-02-06T12:59:12.278Z,19.54
2023-02-06T13:01:50.550Z,19.13
2023-02-06T13:04:20.400Z,19.12
2023-02-06T13:06:53.946Z,19.52
2023-02-06T13:09:26.208Z,20.01
2023-02-06T13:11:54.367Z,19.84
2023-02-06T13:14:24.866Z,19.88
2023-02-06T13:16:56.210Z,20.15
2023-02-06T13:19:27.789Z,20.17
2023-02-06T13:22:22.756Z,20.17
2023-02-06T13:24:52.082Z,19.82
2023-02-06T13:27:23.918Z,19.36
2023-02-06T13:29:52.042Z,19.17
2023-02-06T13:32:45.030Z,19.09
2023-02-06T13:35:27.860Z,19.28
2023-02-06T13:38:25.325Z,18.83
2023-02-06T13:41:34.493Z,19.15
2023-02-06T13:44:05.953Z,19.41
2023-02-06T13:47:12.117Z,19.21
2023-02-06T13:50:02.546Z,19.01
2023-02-06T13:52:39.351Z,19.15
2023-02-06T13:55:25.659Z,18.81
2023-02-06T13:58:21.333Z,18.77
2023-02-06T14:00:52.832Z,19.05
2023-02-06T14:03:25.939Z,19.01
2023-02-06T14:06:00.728Z,18.75
2023-02-06T14:08:39.870Z,19.17
2023-02-06T14:11:23.918Z,20.28
2023-02-06T14:14:16.984Z,20.97
2023-02-06T14:16:53.553Z,21.52
2023-02-06T14:19:31.500Z,21.91
2023-02-06T14:22:04.895Z,21.86
2023-02-06T14:24:50.234Z,20.48
2023-02-06T14:27:41.166Z,19.75
2023-02-06T14:30:23.321Z,20.38
2023-02-06T14:33:03.024Z,20.67
2023-02-06T14:35:53.608Z,21.18
2023-02-06T14:38:36.915Z,20.70
2023-02-06T14:41:04.952Z,19.89
2023-02-06T14:43:35.237Z,19.30
2023-02-06T14:46:08.278Z,18.98
2023-02-06T14:48:40.791Z,19.13
2023-02-06T14:51:18.422Z,19.21
2023-02-06T14:53:52.431Z,18.32
2023-02-06T14:56:26.354Z,18.33
2023-02-06T14:58:54.115Z,18.34
2023-02-06T15:01:23.809Z,18.63
2023-02-06T15:03:53.132Z,18.53
2023-02-06T15:06:32.488Z,18.51
2023-02-06T15:09:01.076Z,18.42
2023-02-06T15:11:29.964Z,18.65
2023-02-06T15:13:57.142Z,19.10
2023-02-06T15:16:24.383Z,19.48
2023-02-06T15:19:10.876Z,19.62
2023-02-06T15:21:40.763Z,19.32
2023-02-06T15:24:21.440Z,18.47
2023-02-06T15:26:56.812Z,18.50
2023-02-06T15:29:26.077Z,18.49
2023-02-06T15:32:01.220Z,18.58
2023-02-06T15:34:30.550Z,18.62
2023-02-06T15:36:58.121Z,18.53
2023-02-06T15:39:26.134Z,18.23
2023-02-06T15:41:54.337Z,18.02
2023-02-06T15:44:29.295Z,17.94
2023-02-06T15:46:58.119Z,17.63
2023-02-06T15:49:42.599Z,17.52
2023-02-06T15:52:11.978Z,17.34
2023-02-06T15:54:40.632Z,17.35
2023-02-06T15:57:24.735Z,17.27
2023-02-06T15:59:52.082Z,17.14
2023-02-06T16:02:23.127Z,17.09
2023-02-06T16:04:54.293Z,17.00
2023-02-06T16:07:24.666Z,17.01
2023-02-06T16:09:54.413Z,16.95
2023-02-06T16:12:22.918Z,16.84
2023-02-06T16:14:55.754Z,16.78
2023-02-06T16:17:27.122Z,16.59
2023-02-06T16:19:58.434Z,16.54
2023-02-06T16:22:28.372Z,16.55
2023-02-06T16:25:15.141Z,16.50
2023-02-06T16:27:45.102Z,16.17
2023-02-06T16:30:22.194Z,16.05
2023-02-06T16:32:50.133Z,15.85
2023-02-06T16:35:19.253Z,15.58
2023-02-06T16:37:48.077Z,15.41
2023-02-06T16:40:15.070Z,15.40
2023-02-06T16:42:42.414Z,15.31
2023-02-06T16:45:18.069Z,15.23
2023-02-06T16:47:45.414Z,15.09
2023-02-06T16:50:13.370Z,14.83
2023-02-06T16:52:48.406Z,14.74
2023-02-06T16:55:19.342Z,14.72
2023-02-06T16:57:48.886Z,14.65
2023-02-06T17:00:21.644Z,14.62
2023-02-06T17:02:50.336Z,14.43
2023-02-06T17:05:18.590Z,14.15
2023-02-06T17:07:47.688Z,14.06
2023-02-06T17:10:15.741Z,13.88
2023-02-06T17:12:43.836Z,13.64
2023-02-06T17:15:12.114Z,13.54
2023-02-06T17:17:40.348Z,13.41
2023-02-06T17:20:17.663Z,13.35
2023-02-06T17:22:46.718Z,13.23
2023-02-06T17:25:13.966Z,13.14
2023-02-06T17:27:41.094Z,13.13
2023-02-06T17:30:16.873Z,13.16
2023-02-06T17:32:44.258Z,13.09
2023-02-06T17:35:14.434Z,13.03
2023-02-06T17:37:42.051Z,13.05
2023-02-06T17:40:19.149Z,12.99
2023-02-06T17:42:46.705Z,12.86
2023-02-06T17:45:14.157Z,12.76
2023-02-06T17:47:42.139Z,12.65
2023-02-06T17:50:13.205Z,12.50
2023-02-06T17:52:40.579Z,12.44
2023-02-06T17:55:09.965Z,12.37
2023-02-06T17:57:39.082Z,12.23
2023-02-06T18:00:09.819Z,12.12
2023-02-06T18:02:37.275Z,12.20
2023-02-06T18:05:05.648Z,12.24
2023-02-06T18:07:33.020Z,12.28
2023-02-06T18:10:01.025Z,12.27
2023-02-06T18:12:28.536Z,12.17
2023-02-06T18:14:57.592Z,12.02
2023-02-06T18:17:24.980Z,11.99
2023-02-06T18:19:52.626Z,12.03
2023-02-06T18:22:21.520Z,12.07
2023-02-06T18:24:50.245Z,12.19
2023-02-06T18:27:18.622Z,12.25
2023-02-06T18:29:50.147Z,12.30
2023-02-06T18:32:19.642Z,12.23
2023-02-06T18:34:49.670Z,12.22
2023-02-06T18:37:16.928Z,12.23
2023-02-06T18:39:44.345Z,12.33
2023-02-06T18:42:12.485Z,12.31
2023-02-06T18:44:40.272Z,12.27
2023-02-06T18:47:07.927Z,12.36
2023-02-06T18:49:36.689Z,12.41
2023-02-06T18:52:05.229Z,12.47
2023-02-06T18:54:32.642Z,12.54
2023-02-06T18:56:59.828Z,12.51
2023-02-06T18:59:27.196Z,12.48
2023-02-06T19:01:54.567Z,12.58
2023-02-06T19:04:22.614Z,12.59
2023-02-06T19:06:51.341Z,12.44
2023-02-06T19:09:19.232Z,12.41
2023-02-06T19:11:49.841Z,12.37
2023-02-06T19:14:18.648Z,12.47
2023-02-06T19:16:45.928Z,12.45
2023-02-06T19:19:16.062Z,12.42
2023-02-06T19:21:44.104Z,12.46
2023-02-06T19:24:15.050Z,12.52
2023-02-06T19:26:42.780Z,12.55
2023-02-06T19:29:12.282Z,12.39
2023-02-06T19:31:39.813Z,12.36
2023-02-06T19:34:07.470Z,12.25
2023-02-06T19:36:35.047Z,12.24
2023-02-06T19:39:05.912Z,12.22
2023-02-06T19:41:34.871Z,12.22
2023-02-06T19:44:05.571Z,12.17
2023-02-06T19:46:36.103Z,12.18
2023-02-06T19:49:04.170Z,12.13
2023-02-06T19:51:33.164Z,12.10
2023-02-06T19:54:01.599Z,12.11
2023-02-06T19:56:30.565Z,12.14
2023-02-06T19:59:01.591Z,12.04
2023-02-06T20:01:30.121Z,12.02
2023-02-06T20:03:58.893Z,12.03
2023-02-06T20:06:27.393Z,12.01
2023-02-06T20:08:56.230Z,12.04
2023-02-06T20:11:24.111Z,11.99
2023-02-06T20:13:52.315Z,12.10
2023-02-06T20:16:23.091Z,12.05
2023-02-06T20:18:50.812Z,12.00
2023-02-06T20:21:21.000Z,11.94
2023-02-06T20:23:48.873Z,11.91
2023-02-06T20:26:17.626Z,11.92
2023-02-06T20:28:45.520Z,11.80
2023-02-06T20:31:13.227Z,11.81
2023-02-06T20:33:42.462Z,11.74
2023-02-06T20:36:12.636Z,11.70
2023-02-06T20:38:40.005Z,11.71
2023-02-06T20:41:08.230Z,11.67
2023-02-06T20:43:37.061Z,11.65
2023-02-06T20:46:06.037Z,11.65
2023-02-06T20:48:33.675Z,11.60
2023-02-06T20:51:05.556Z,11.61
2023-02-06T20:53:32.913Z,11.65
2023-02-06T20:56:00.205Z,11.58
2023-02-06T20:58:28.531Z,11.57
2023-02-06T21:00:56.605Z,11.54
2023-02-06T21:03:23.987Z,11.53
2023-02-06T21:05:58.201Z,11.48
2023-02-06T21:08:27.929Z,11.55
2023-02-06T21:10:55.826Z,11.50
2023-02-06T21:13:23.437Z,11.48
2023-02-06T21:15:52.333Z,11.41
2023-02-06T21:18:19.990Z,11.41
2023-02-06T21:20:47.560Z,11.38
2023-02-06T21:23:14.923Z,11.28
2023-02-06T21:25:43.717Z,11.30
2023-02-06T21:28:10.506Z,11.37
2023-02-06T21:30:38.150Z,11.43
2023-02-06T21:33:05.940Z,11.42
2023-02-06T21:35:33.258Z,11.36
2023-02-06T21:38:00.720Z,11.16
2023-02-06T21:40:27.834Z,11.03
2023-02-06T21:42:56.888Z,11.02
2023-02-06T21:45:24.102Z,10.93
2023-02-06T21:47:51.925Z,10.82
2023-02-06T21:50:19.289Z,10.67
2023-02-06T21:52:46.476Z,10.68
2023-02-06T21:55:13.701Z,10.59
2023-02-06T21:57:41.302Z,10.44
2023-02-06T22:00:11.103Z,10.25
2023-02-06T22:02:38.470Z,10.14
2023-02-06T22:05:06.857Z,10.10
2023-02-06T22:07:35.754Z,9.90
2023-02-06T22:10:04.414Z,10.15
2023-02-06T22:12:32.466Z,9.86
2023-02-06T22:15:00.279Z,9.72
2023-02-06T22:17:29.779Z,9.78
2023-02-06T22:19:57.266Z,9.82
2023-02-06T22:22:24.529Z,9.82
2023-02-06T22:24:51.967Z,9.80
2023-02-06T22:27:19.225Z,9.71
2023-02-06T22:29:46.603Z,9.52
2023-02-06T22:32:13.710Z,9.53
2023-02-06T22:34:42.542Z,9.48
2023-02-06T22:37:10.303Z,9.52
2023-02-06T22:39:39.302Z,9.38
2023-02-06T22:42:07.327Z,9.41
2023-02-06T22:44:35.812Z,9.29
2023-02-06T22:47:03.224Z,9.23
2023-02-06T22:49:30.635Z,9.19
2023-02-06T22:51:59.971Z,9.21
2023-02-06T22:54:27.409Z,9.14
2023-02-06T22:56:55.192Z,9.00
2023-02-06T22:59:24.135Z,8.96
2023-02-06T23:01:54.235Z,8.90
2023-02-06T23:04:23.879Z,8.88
2023-02-06T23:06:52.166Z,8.91
2023-02-06T23:09:23.710Z,9.07
2023-02-06T23:11:51.644Z,9.11
2023-02-06T23:14:19.230Z,9.02
2023-02-06T23:16:47.642Z,8.90
2023-02-06T23:19:16.259Z,9.07
2023-02-06T23:21:45.254Z,8.98
2023-02-06T23:24:13.409Z,8.89
2023-02-06T23:26:44.585Z,8.96
2023-02-06T23:29:13.186Z,8.99
2023-02-06T23:31:43.369Z,9.05
2023-02-06T23:34:12.836Z,9.07
2023-02-06T23:36:40.704Z,9.00
2023-02-06T23:39:08.048Z,8.80
2023-02-06T23:41:35.496Z,8.56
2023-02-06T23:44:06.669Z,8.62
2023-02-06T23:46:36.094Z,8.57
2023-02-06T23:49:03.622Z,8.68
2023-02-06T23:51:30.967Z,8.63
2023-02-06T23:53:58.997Z,8.70
2023-02-06T23:56:29.154Z,8.58
2023-02-06T23:58:58.152Z,8.59
